OMDM/NHD METAR and TAF weather

Enter ICAO airport designator
Station Type Date Time Source
OMDM METAR 2014/01/16 09:30 UTC NOAA

OMDM 160930Z 27010KT 8000NDV SCT035 22/11 Q1020


Station Type Date Time Source
OMDM Decoded METAR 2014/01/16 09:30 UTC NOAA

Station name not available
Jan 16, 2014 - 04:30 AM EST / 2014.01.16 0930 UTC
Wind: from the W (270 degrees) at 12 MPH (10 KT):0
Sky conditions: partly cloudy
Temperature: 71 F (22 C)
Dew Point: 51 F (11 C)
Relative Humidity: 49%
Pressure (altimeter): 30.12 in. Hg (1020 hPa)
ob: OMDM 160930Z 27010KT 8000NDV SCT035 22/11 Q1020
cycle: 9

Station Type Date Time Source
OMDM TAF 2015/04/11 18:25 UTC NOAA

TAF OMDM 111725Z 1118/1224 06005KT 7000 NSC
BECMG 1203/1205 19013KT PROB30
TEMPO 1206/1212 21008G18KT 4000 DU
BECMG 1213/1215 35010KT
BECMG 1218/1220 12009KT


Example: see airport list